sensor_id;sensor_type;location;lat;lon;timestamp;P1;durP1;ratioP1;P2;durP2;ratioP2
59008;SDS011;44794;42.652;23.318;2023-02-01T00:01:37;12.60;;;6.25;;
59008;SDS011;44794;42.652;23.318;2023-02-01T00:04:03;11.73;;;6.40;;
59008;SDS011;44794;42.652;23.318;2023-02-01T00:06:28;9.10;;;6.00;;
59008;SDS011;44794;42.652;23.318;2023-02-01T00:08:54;10.10;;;6.40;;
59008;SDS011;44794;42.652;23.318;2023-02-01T00:11:20;7.30;;;5.40;;
59008;SDS011;44794;42.652;23.318;2023-02-01T00:13:47;11.70;;;6.70;;
59008;SDS011;44794;42.652;23.318;2023-02-01T00:16:13;12.80;;;6.40;;
59008;SDS011;44794;42.652;23.318;2023-02-01T00:18:41;11.95;;;6.05;;
59008;SDS011;44794;42.652;23.318;2023-02-01T00:21:07;10.73;;;6.72;;
59008;SDS011;44794;42.652;23.318;2023-02-01T00:23:33;10.93;;;7.40;;
59008;SDS011;44794;42.652;23.318;2023-02-01T00:26:02;12.85;;;8.10;;
59008;SDS011;44794;42.652;23.318;2023-02-01T00:28:28;9.52;;;6.63;;
59008;SDS011;44794;42.652;23.318;2023-02-01T00:30:58;8.68;;;6.10;;
59008;SDS011;44794;42.652;23.318;2023-02-01T00:33:28;13.93;;;6.60;;
59008;SDS011;44794;42.652;23.318;2023-02-01T00:35:57;11.25;;;6.25;;
59008;SDS011;44794;42.652;23.318;2023-02-01T00:38:24;11.32;;;7.20;;
59008;SDS011;44794;42.652;23.318;2023-02-01T00:40:50;9.73;;;6.78;;
59008;SDS011;44794;42.652;23.318;2023-02-01T00:43:15;10.20;;;6.25;;
59008;SDS011;44794;42.652;23.318;2023-02-01T00:45:41;7.38;;;5.60;;
59008;SDS011;44794;42.652;23.318;2023-02-01T00:48:06;8.18;;;4.35;;
59008;SDS011;44794;42.652;23.318;2023-02-01T00:50:32;7.47;;;5.53;;
59008;SDS011;44794;42.652;23.318;2023-02-01T00:52:57;9.32;;;5.93;;
59008;SDS011;44794;42.652;23.318;2023-02-01T00:55:22;8.70;;;5.18;;
59008;SDS011;44794;42.652;23.318;2023-02-01T00:57:48;10.27;;;6.20;;
59008;SDS011;44794;42.652;23.318;2023-02-01T01:00:13;8.77;;;5.28;;
59008;SDS011;44794;42.652;23.318;2023-02-01T01:02:41;8.40;;;5.97;;
59008;SDS011;44794;42.652;23.318;2023-02-01T01:05:06;9.85;;;5.80;;
59008;SDS011;44794;42.652;23.318;2023-02-01T01:07:32;6.57;;;3.92;;
59008;SDS011;44794;42.652;23.318;2023-02-01T01:09:57;8.13;;;5.38;;
59008;SDS011;44794;42.652;23.318;2023-02-01T01:12:23;9.07;;;5.60;;
59008;SDS011;44794;42.652;23.318;2023-02-01T01:14:48;10.93;;;7.38;;
59008;SDS011;44794;42.652;23.318;2023-02-01T01:17:14;9.35;;;6.07;;
59008;SDS011;44794;42.652;23.318;2023-02-01T01:19:39;8.55;;;5.47;;
59008;SDS011;44794;42.652;23.318;2023-02-01T01:22:04;9.68;;;5.60;;
59008;SDS011;44794;42.652;23.318;2023-02-01T01:24:30;6.70;;;5.25;;
59008;SDS011;44794;42.652;23.318;2023-02-01T01:26:55;8.55;;;6.20;;
59008;SDS011;44794;42.652;23.318;2023-02-01T01:29:21;7.68;;;4.70;;
59008;SDS011;44794;42.652;23.318;2023-02-01T01:31:46;7.68;;;5.20;;
59008;SDS011;44794;42.652;23.318;2023-02-01T01:34:11;6.45;;;3.70;;
59008;SDS011;44794;42.652;23.318;2023-02-01T01:36:37;7.47;;;4.65;;
59008;SDS011;44794;42.652;23.318;2023-02-01T01:39:02;9.27;;;5.15;;
59008;SDS011;44794;42.652;23.318;2023-02-01T01:41:31;6.15;;;4.20;;
59008;SDS011;44794;42.652;23.318;2023-02-01T01:44:04;8.45;;;5.43;;
59008;SDS011;44794;42.652;23.318;2023-02-01T01:46:35;10.05;;;5.03;;
59008;SDS011;44794;42.652;23.318;2023-02-01T01:49:07;7.07;;;4.50;;
59008;SDS011;44794;42.652;23.318;2023-02-01T01:51:52;8.93;;;4.53;;
59008;SDS011;44794;42.652;23.318;2023-02-01T01:54:26;6.07;;;3.72;;
59008;SDS011;44794;42.652;23.318;2023-02-01T01:56:57;6.35;;;3.85;;
59008;SDS011;44794;42.652;23.318;2023-02-01T01:59:27;10.85;;;6.03;;
59008;SDS011;44794;42.652;23.318;2023-02-01T02:01:55;5.97;;;3.75;;
59008;SDS011;44794;42.652;23.318;2023-02-01T02:04:21;6.13;;;3.90;;
59008;SDS011;44794;42.652;23.318;2023-02-01T02:06:56;8.82;;;5.00;;
59008;SDS011;44794;42.652;23.318;2023-02-01T02:09:26;7.40;;;4.43;;
59008;SDS011;44794;42.652;23.318;2023-02-01T02:11:52;8.48;;;4.13;;
59008;SDS011;44794;42.652;23.318;2023-02-01T02:14:17;7.65;;;5.28;;
59008;SDS011;44794;42.652;23.318;2023-02-01T02:33:57;4.88;;;3.25;;
59008;SDS011;44794;42.652;23.318;2023-02-01T02:39:06;7.88;;;4.03;;
59008;SDS011;44794;42.652;23.318;2023-02-01T02:41:42;4.65;;;2.33;;
59008;SDS011;44794;42.652;23.318;2023-02-01T02:45:09;6.75;;;4.00;;
59008;SDS011;44794;42.652;23.318;2023-02-01T02:50:55;5.75;;;3.58;;
59008;SDS011;44794;42.652;23.318;2023-02-01T02:53:52;6.45;;;3.08;;
59008;SDS011;44794;42.652;23.318;2023-02-01T02:56:43;7.05;;;3.10;;
59008;SDS011;44794;42.652;23.318;2023-02-01T02:59:27;7.35;;;3.33;;
59008;SDS011;44794;42.652;23.318;2023-02-01T03:02:13;7.22;;;3.42;;
59008;SDS011;44794;42.652;23.318;2023-02-01T03:04:58;5.18;;;2.80;;
59008;SDS011;44794;42.652;23.318;2023-02-01T03:10:08;4.07;;;2.72;;
59008;SDS011;44794;42.652;23.318;2023-02-01T03:12:42;4.18;;;2.30;;
59008;SDS011;44794;42.652;23.318;2023-02-01T03:15:21;3.65;;;2.22;;
59008;SDS011;44794;42.652;23.318;2023-02-01T03:17:56;5.38;;;3.08;;
59008;SDS011;44794;42.652;23.318;2023-02-01T03:22:52;5.78;;;2.90;;
59008;SDS011;44794;42.652;23.318;2023-02-01T03:25:21;6.95;;;3.50;;
59008;SDS011;44794;42.652;23.318;2023-02-01T03:27:56;3.97;;;2.53;;
59008;SDS011;44794;42.652;23.318;2023-02-01T03:30:26;5.22;;;3.20;;
59008;SDS011;44794;42.652;23.318;2023-02-01T03:32:56;7.45;;;4.05;;
59008;SDS011;44794;42.652;23.318;2023-02-01T03:38:12;7.57;;;3.00;;
59008;SDS011;44794;42.652;23.318;2023-02-01T03:40:41;4.47;;;3.42;;
59008;SDS011;44794;42.652;23.318;2023-02-01T03:43:10;4.43;;;2.63;;
59008;SDS011;44794;42.652;23.318;2023-02-01T03:48:08;5.13;;;2.45;;
59008;SDS011;44794;42.652;23.318;2023-02-01T03:50:36;3.05;;;2.60;;
59008;SDS011;44794;42.652;23.318;2023-02-01T03:53:06;5.68;;;3.78;;
59008;SDS011;44794;42.652;23.318;2023-02-01T03:55:34;3.60;;;2.67;;
59008;SDS011;44794;42.652;23.318;2023-02-01T03:58:17;6.80;;;3.95;;
59008;SDS011;44794;42.652;23.318;2023-02-01T04:00:46;6.00;;;3.42;;
59008;SDS011;44794;42.652;23.318;2023-02-01T04:03:16;5.60;;;3.50;;
59008;SDS011;44794;42.652;23.318;2023-02-01T04:05:42;4.53;;;3.20;;
59008;SDS011;44794;42.652;23.318;2023-02-01T04:08:07;4.97;;;3.33;;
59008;SDS011;44794;42.652;23.318;2023-02-01T04:10:33;5.53;;;3.83;;
59008;SDS011;44794;42.652;23.318;2023-02-01T04:12:58;4.05;;;2.63;;
59008;SDS011;44794;42.652;23.318;2023-02-01T04:15:23;5.38;;;2.97;;
59008;SDS011;44794;42.652;23.318;2023-02-01T04:17:49;6.32;;;2.90;;
59008;SDS011;44794;42.652;23.318;2023-02-01T04:20:14;9.63;;;3.45;;
59008;SDS011;44794;42.652;23.318;2023-02-01T04:22:40;8.90;;;4.85;;
59008;SDS011;44794;42.652;23.318;2023-02-01T04:25:06;6.47;;;4.15;;
59008;SDS011;44794;42.652;23.318;2023-02-01T04:27:33;10.85;;;4.72;;
59008;SDS011;44794;42.652;23.318;2023-02-01T04:29:58;5.85;;;3.22;;
59008;SDS011;44794;42.652;23.318;2023-02-01T04:32:24;9.65;;;4.60;;
59008;SDS011;44794;42.652;23.318;2023-02-01T04:34:49;6.20;;;3.65;;
59008;SDS011;44794;42.652;23.318;2023-02-01T04:37:15;8.00;;;4.13;;
59008;SDS011;44794;42.652;23.318;2023-02-01T04:39:40;6.00;;;4.00;;
59008;SDS011;44794;42.652;23.318;2023-02-01T04:42:06;8.38;;;5.70;;
59008;SDS011;44794;42.652;23.318;2023-02-01T04:44:31;11.45;;;6.88;;
59008;SDS011;44794;42.652;23.318;2023-02-01T04:46:56;8.35;;;4.50;;
59008;SDS011;44794;42.652;23.318;2023-02-01T04:49:22;6.32;;;4.10;;
59008;SDS011;44794;42.652;23.318;2023-02-01T04:51:47;9.07;;;4.68;;
59008;SDS011;44794;42.652;23.318;2023-02-01T04:54:13;6.40;;;4.07;;
59008;SDS011;44794;42.652;23.318;2023-02-01T04:56:39;7.10;;;4.57;;
59008;SDS011;44794;42.652;23.318;2023-02-01T04:59:05;15.35;;;6.55;;
59008;SDS011;44794;42.652;23.318;2023-02-01T05:01:31;10.35;;;5.25;;
59008;SDS011;44794;42.652;23.318;2023-02-01T05:03:57;12.02;;;7.25;;
59008;SDS011;44794;42.652;23.318;2023-02-01T05:06:22;10.75;;;5.60;;
59008;SDS011;44794;42.652;23.318;2023-02-01T05:08:48;9.70;;;5.75;;
59008;SDS011;44794;42.652;23.318;2023-02-01T05:11:14;12.88;;;8.75;;
59008;SDS011;44794;42.652;23.318;2023-02-01T05:13:58;7.18;;;4.75;;
59008;SDS011;44794;42.652;23.318;2023-02-01T05:16:24;7.97;;;4.50;;
59008;SDS011;44794;42.652;23.318;2023-02-01T05:18:50;7.07;;;4.15;;
59008;SDS011;44794;42.652;23.318;2023-02-01T05:21:16;6.38;;;4.20;;
59008;SDS011;44794;42.652;23.318;2023-02-01T05:23:42;9.82;;;6.55;;
59008;SDS011;44794;42.652;23.318;2023-02-01T05:26:26;8.73;;;5.72;;
59008;SDS011;44794;42.652;23.318;2023-02-01T05:28:52;9.18;;;5.30;;
59008;SDS011;44794;42.652;23.318;2023-02-01T05:31:17;10.95;;;5.70;;
59008;SDS011;44794;42.652;23.318;2023-02-01T05:33:43;8.32;;;5.22;;
59008;SDS011;44794;42.652;23.318;2023-02-01T05:36:08;9.63;;;4.85;;
59008;SDS011;44794;42.652;23.318;2023-02-01T05:38:34;8.52;;;5.07;;
59008;SDS011;44794;42.652;23.318;2023-02-01T05:40:59;10.50;;;5.47;;
59008;SDS011;44794;42.652;23.318;2023-02-01T05:43:25;11.95;;;5.18;;
59008;SDS011;44794;42.652;23.318;2023-02-01T05:45:53;9.45;;;5.30;;
59008;SDS011;44794;42.652;23.318;2023-02-01T05:48:19;13.57;;;7.25;;
59008;SDS011;44794;42.652;23.318;2023-02-01T05:50:44;7.22;;;5.03;;
59008;SDS011;44794;42.652;23.318;2023-02-01T05:53:10;11.05;;;5.18;;
59008;SDS011;44794;42.652;23.318;2023-02-01T05:55:36;9.23;;;4.97;;
59008;SDS011;44794;42.652;23.318;2023-02-01T05:58:02;10.43;;;4.10;;
59008;SDS011;44794;42.652;23.318;2023-02-01T06:00:28;8.57;;;4.00;;
59008;SDS011;44794;42.652;23.318;2023-02-01T06:02:54;9.95;;;4.90;;
59008;SDS011;44794;42.652;23.318;2023-02-01T06:05:20;7.20;;;4.22;;
59008;SDS011;44794;42.652;23.318;2023-02-01T06:07:46;14.82;;;5.07;;
59008;SDS011;44794;42.652;23.318;2023-02-01T06:10:11;9.68;;;4.70;;
59008;SDS011;44794;42.652;23.318;2023-02-01T06:12:37;12.13;;;5.88;;
59008;SDS011;44794;42.652;23.318;2023-02-01T06:15:02;12.98;;;4.68;;
59008;SDS011;44794;42.652;23.318;2023-02-01T06:17:28;10.60;;;5.35;;
59008;SDS011;44794;42.652;23.318;2023-02-01T06:19:54;8.32;;;4.20;;
59008;SDS011;44794;42.652;23.318;2023-02-01T06:22:19;10.20;;;4.40;;
59008;SDS011;44794;42.652;23.318;2023-02-01T06:24:46;10.80;;;4.57;;
59008;SDS011;44794;42.652;23.318;2023-02-01T06:27:12;9.35;;;4.97;;
59008;SDS011;44794;42.652;23.318;2023-02-01T06:29:38;8.98;;;5.40;;
59008;SDS011;44794;42.652;23.318;2023-02-01T06:32:03;9.02;;;4.13;;
59008;SDS011;44794;42.652;23.318;2023-02-01T06:34:29;11.48;;;4.10;;
59008;SDS011;44794;42.652;23.318;2023-02-01T06:36:54;8.18;;;4.00;;
59008;SDS011;44794;42.652;23.318;2023-02-01T06:39:20;9.60;;;4.07;;
59008;SDS011;44794;42.652;23.318;2023-02-01T06:41:46;6.22;;;3.10;;
59008;SDS011;44794;42.652;23.318;2023-02-01T06:44:12;8.18;;;3.75;;
59008;SDS011;44794;42.652;23.318;2023-02-01T06:46:38;7.90;;;4.30;;
59008;SDS011;44794;42.652;23.318;2023-02-01T06:49:03;7.15;;;4.43;;
59008;SDS011;44794;42.652;23.318;2023-02-01T06:51:29;10.23;;;4.20;;
59008;SDS011;44794;42.652;23.318;2023-02-01T06:53:55;7.65;;;4.00;;
59008;SDS011;44794;42.652;23.318;2023-02-01T06:56:20;9.57;;;6.43;;
59008;SDS011;44794;42.652;23.318;2023-02-01T06:58:46;11.38;;;5.55;;
59008;SDS011;44794;42.652;23.318;2023-02-01T07:01:13;9.65;;;4.47;;
59008;SDS011;44794;42.652;23.318;2023-02-01T07:03:39;6.53;;;3.60;;
59008;SDS011;44794;42.652;23.318;2023-02-01T07:06:05;8.52;;;4.75;;
59008;SDS011;44794;42.652;23.318;2023-02-01T07:08:32;12.70;;;4.72;;
59008;SDS011;44794;42.652;23.318;2023-02-01T07:11:06;11.75;;;4.80;;
59008;SDS011;44794;42.652;23.318;2023-02-01T07:13:34;8.65;;;4.85;;
59008;SDS011;44794;42.652;23.318;2023-02-01T07:16:00;10.32;;;5.13;;
59008;SDS011;44794;42.652;23.318;2023-02-01T07:18:27;10.65;;;5.72;;
59008;SDS011;44794;42.652;23.318;2023-02-01T07:20:54;8.27;;;3.75;;
59008;SDS011;44794;42.652;23.318;2023-02-01T07:23:20;10.18;;;5.15;;
59008;SDS011;44794;42.652;23.318;2023-02-01T07:25:46;10.00;;;5.60;;
59008;SDS011;44794;42.652;23.318;2023-02-01T07:28:12;9.38;;;4.78;;
59008;SDS011;44794;42.652;23.318;2023-02-01T07:30:39;7.63;;;3.13;;
59008;SDS011;44794;42.652;23.318;2023-02-01T07:33:07;10.02;;;5.30;;
59008;SDS011;44794;42.652;23.318;2023-02-01T07:35:33;11.43;;;4.18;;
59008;SDS011;44794;42.652;23.318;2023-02-01T07:37:58;8.27;;;3.90;;
59008;SDS011;44794;42.652;23.318;2023-02-01T07:40:24;11.93;;;6.05;;
59008;SDS011;44794;42.652;23.318;2023-02-01T07:42:54;12.93;;;4.28;;
59008;SDS011;44794;42.652;23.318;2023-02-01T07:45:21;9.65;;;4.20;;
59008;SDS011;44794;42.652;23.318;2023-02-01T07:47:47;9.25;;;3.95;;
59008;SDS011;44794;42.652;23.318;2023-02-01T07:50:13;7.05;;;4.70;;
59008;SDS011;44794;42.652;23.318;2023-02-01T07:52:39;8.75;;;4.55;;
59008;SDS011;44794;42.652;23.318;2023-02-01T07:55:06;7.15;;;3.30;;
59008;SDS011;44794;42.652;23.318;2023-02-01T07:57:32;8.02;;;3.83;;
59008;SDS011;44794;42.652;23.318;2023-02-01T07:59:57;6.00;;;3.05;;
59008;SDS011;44794;42.652;23.318;2023-02-01T08:02:41;10.85;;;4.82;;
59008;SDS011;44794;42.652;23.318;2023-02-01T08:05:07;5.93;;;4.10;;
59008;SDS011;44794;42.652;23.318;2023-02-01T08:07:33;8.48;;;5.07;;
59008;SDS011;44794;42.652;23.318;2023-02-01T08:09:58;6.55;;;3.13;;
59008;SDS011;44794;42.652;23.318;2023-02-01T08:12:25;8.95;;;3.90;;
59008;SDS011;44794;42.652;23.318;2023-02-01T08:14:52;5.88;;;3.00;;
59008;SDS011;44794;42.652;23.318;2023-02-01T08:17:18;7.55;;;4.82;;
59008;SDS011;44794;42.652;23.318;2023-02-01T08:19:44;9.50;;;4.00;;
59008;SDS011;44794;42.652;23.318;2023-02-01T08:22:09;8.05;;;5.28;;
59008;SDS011;44794;42.652;23.318;2023-02-01T08:24:35;7.65;;;4.30;;
59008;SDS011;44794;42.652;23.318;2023-02-01T08:27:02;8.23;;;4.47;;
59008;SDS011;44794;42.652;23.318;2023-02-01T08:29:28;14.85;;;5.50;;
59008;SDS011;44794;42.652;23.318;2023-02-01T08:31:53;7.43;;;3.50;;
59008;SDS011;44794;42.652;23.318;2023-02-01T08:34:19;10.93;;;4.93;;
59008;SDS011;44794;42.652;23.318;2023-02-01T08:36:45;7.72;;;3.67;;
59008;SDS011;44794;42.652;23.318;2023-02-01T08:39:11;7.75;;;5.38;;
59008;SDS011;44794;42.652;23.318;2023-02-01T08:41:36;11.18;;;5.28;;
59008;SDS011;44794;42.652;23.318;2023-02-01T08:44:02;8.27;;;3.50;;
59008;SDS011;44794;42.652;23.318;2023-02-01T08:46:28;6.88;;;2.78;;
59008;SDS011;44794;42.652;23.318;2023-02-01T08:48:54;5.57;;;3.15;;
59008;SDS011;44794;42.652;23.318;2023-02-01T08:51:20;8.98;;;4.35;;
59008;SDS011;44794;42.652;23.318;2023-02-01T08:53:47;6.38;;;3.25;;
59008;SDS011;44794;42.652;23.318;2023-02-01T08:56:14;8.43;;;4.32;;
59008;SDS011;44794;42.652;23.318;2023-02-01T08:58:41;10.15;;;4.43;;
59008;SDS011;44794;42.652;23.318;2023-02-01T09:01:08;7.25;;;3.25;;
59008;SDS011;44794;42.652;23.318;2023-02-01T09:03:38;7.38;;;3.60;;
59008;SDS011;44794;42.652;23.318;2023-02-01T09:06:08;12.65;;;4.80;;
59008;SDS011;44794;42.652;23.318;2023-02-01T09:08:36;6.93;;;3.80;;
59008;SDS011;44794;42.652;23.318;2023-02-01T09:11:03;7.88;;;4.72;;
59008;SDS011;44794;42.652;23.318;2023-02-01T09:13:35;6.75;;;3.40;;
59008;SDS011;44794;42.652;23.318;2023-02-01T09:16:01;8.63;;;4.55;;
59008;SDS011;44794;42.652;23.318;2023-02-01T09:18:27;10.10;;;4.13;;
59008;SDS011;44794;42.652;23.318;2023-02-01T09:20:52;11.27;;;5.03;;
59008;SDS011;44794;42.652;23.318;2023-02-01T09:23:18;10.70;;;3.55;;
59008;SDS011;44794;42.652;23.318;2023-02-01T09:25:45;8.23;;;3.80;;
59008;SDS011;44794;42.652;23.318;2023-02-01T09:28:11;7.60;;;3.42;;
59008;SDS011;44794;42.652;23.318;2023-02-01T09:30:36;5.68;;;2.63;;
59008;SDS011;44794;42.652;23.318;2023-02-01T09:33:02;7.07;;;3.53;;
59008;SDS011;44794;42.652;23.318;2023-02-01T09:35:28;5.00;;;3.13;;
59008;SDS011;44794;42.652;23.318;2023-02-01T09:37:54;8.32;;;2.90;;
59008;SDS011;44794;42.652;23.318;2023-02-01T09:40:20;4.38;;;2.38;;
59008;SDS011;44794;42.652;23.318;2023-02-01T09:43:00;4.90;;;2.20;;
59008;SDS011;44794;42.652;23.318;2023-02-01T09:45:48;6.80;;;2.33;;
59008;SDS011;44794;42.652;23.318;2023-02-01T09:48:27;7.57;;;3.60;;
59008;SDS011;44794;42.652;23.318;2023-02-01T09:50:58;9.10;;;2.85;;
59008;SDS011;44794;42.652;23.318;2023-02-01T09:53:27;8.82;;;4.03;;
59008;SDS011;44794;42.652;23.318;2023-02-01T09:56:02;9.68;;;3.78;;
59008;SDS011;44794;42.652;23.318;2023-02-01T09:58:39;8.88;;;3.40;;
59008;SDS011;44794;42.652;23.318;2023-02-01T10:01:22;10.02;;;3.28;;
59008;SDS011;44794;42.652;23.318;2023-02-01T10:03:50;6.73;;;2.97;;
59008;SDS011;44794;42.652;23.318;2023-02-01T10:14:32;5.50;;;2.40;;
59008;SDS011;44794;42.652;23.318;2023-02-01T10:17:03;4.78;;;2.70;;
59008;SDS011;44794;42.652;23.318;2023-02-01T10:25:09;6.63;;;2.65;;
59008;SDS011;44794;42.652;23.318;2023-02-01T10:27:42;6.55;;;2.47;;
59008;SDS011;44794;42.652;23.318;2023-02-01T10:30:24;5.93;;;2.88;;
59008;SDS011;44794;42.652;23.318;2023-02-01T10:32:55;6.90;;;2.95;;
59008;SDS011;44794;42.652;23.318;2023-02-01T10:35:24;6.47;;;3.08;;
59008;SDS011;44794;42.652;23.318;2023-02-01T10:37:53;4.85;;;2.65;;
59008;SDS011;44794;42.652;23.318;2023-02-01T10:42:52;5.03;;;2.28;;
59008;SDS011;44794;42.652;23.318;2023-02-01T10:45:20;3.97;;;2.25;;
59008;SDS011;44794;42.652;23.318;2023-02-01T10:47:49;5.10;;;2.40;;
59008;SDS011;44794;42.652;23.318;2023-02-01T10:55:39;8.57;;;2.50;;
59008;SDS011;44794;42.652;23.318;2023-02-01T11:01:22;5.75;;;2.28;;
59008;SDS011;44794;42.652;23.318;2023-02-01T11:04:14;3.67;;;2.53;;
59008;SDS011;44794;42.652;23.318;2023-02-01T11:06:52;6.13;;;2.72;;
59008;SDS011;44794;42.652;23.318;2023-02-01T11:09:30;3.67;;;2.08;;
59008;SDS011;44794;42.652;23.318;2023-02-01T11:11:57;3.83;;;1.75;;
59008;SDS011;44794;42.652;23.318;2023-02-01T11:16:51;6.53;;;2.95;;
59008;SDS011;44794;42.652;23.318;2023-02-01T11:19:19;8.65;;;3.13;;
59008;SDS011;44794;42.652;23.318;2023-02-01T11:21:48;5.72;;;2.22;;
59008;SDS011;44794;42.652;23.318;2023-02-01T11:24:25;8.77;;;3.28;;
59008;SDS011;44794;42.652;23.318;2023-02-01T11:26:57;4.05;;;2.60;;
59008;SDS011;44794;42.652;23.318;2023-02-01T11:29:24;6.00;;;2.30;;
59008;SDS011;44794;42.652;23.318;2023-02-01T11:31:58;5.53;;;2.22;;
59008;SDS011;44794;42.652;23.318;2023-02-01T11:34:36;5.68;;;2.40;;
59008;SDS011;44794;42.652;23.318;2023-02-01T11:37:04;6.53;;;3.08;;
59008;SDS011;44794;42.652;23.318;2023-02-01T11:39:38;7.40;;;2.30;;
59008;SDS011;44794;42.652;23.318;2023-02-01T11:44:41;3.08;;;1.83;;
59008;SDS011;44794;42.652;23.318;2023-02-01T11:49:58;3.95;;;1.92;;
59008;SDS011;44794;42.652;23.318;2023-02-01T11:58:10;5.57;;;2.42;;
59008;SDS011;44794;42.652;23.318;2023-02-01T12:03:38;2.80;;;1.88;;
59008;SDS011;44794;42.652;23.318;2023-02-01T12:09:17;6.25;;;2.70;;
59008;SDS011;44794;42.652;23.318;2023-02-01T12:14:56;4.07;;;2.00;;
59008;SDS011;44794;42.652;23.318;2023-02-01T12:17:48;4.70;;;1.90;;
59008;SDS011;44794;42.652;23.318;2023-02-01T12:29:31;4.47;;;2.78;;
59008;SDS011;44794;42.652;23.318;2023-02-01T12:43:15;3.45;;;2.50;;
59008;SDS011;44794;42.652;23.318;2023-02-01T12:45:49;4.35;;;2.60;;
59008;SDS011;44794;42.652;23.318;2023-02-01T12:48:21;2.97;;;1.90;;
59008;SDS011;44794;42.652;23.318;2023-02-01T12:50:54;3.97;;;2.30;;
59008;SDS011;44794;42.652;23.318;2023-02-01T12:53:50;4.47;;;2.03;;
59008;SDS011;44794;42.652;23.318;2023-02-01T12:56:28;5.20;;;2.58;;
59008;SDS011;44794;42.652;23.318;2023-02-01T12:59:13;5.20;;;1.92;;
59008;SDS011;44794;42.652;23.318;2023-02-01T13:01:46;3.25;;;2.00;;
59008;SDS011;44794;42.652;23.318;2023-02-01T13:04:38;5.40;;;2.50;;
59008;SDS011;44794;42.652;23.318;2023-02-01T13:07:31;5.15;;;2.40;;
59008;SDS011;44794;42.652;23.318;2023-02-01T13:12:53;5.28;;;2.80;;
59008;SDS011;44794;42.652;23.318;2023-02-01T13:15:44;8.15;;;2.90;;
59008;SDS011;44794;42.652;23.318;2023-02-01T13:18:22;8.75;;;3.90;;
59008;SDS011;44794;42.652;23.318;2023-02-01T13:23:36;4.55;;;2.55;;
59008;SDS011;44794;42.652;23.318;2023-02-01T13:26:03;5.55;;;2.45;;
59008;SDS011;44794;42.652;23.318;2023-02-01T13:28:31;3.38;;;2.33;;
59008;SDS011;44794;42.652;23.318;2023-02-01T13:42:01;4.43;;;2.55;;
59008;SDS011;44794;42.652;23.318;2023-02-01T13:44:32;3.80;;;2.10;;
59008;SDS011;44794;42.652;23.318;2023-02-01T13:47:08;4.55;;;2.10;;
59008;SDS011;44794;42.652;23.318;2023-02-01T13:49:42;5.90;;;2.60;;
59008;SDS011;44794;42.652;23.318;2023-02-01T13:52:17;3.30;;;1.70;;
59008;SDS011;44794;42.652;23.318;2023-02-01T13:54:49;4.05;;;1.85;;
59008;SDS011;44794;42.652;23.318;2023-02-01T13:57:45;4.03;;;2.20;;
59008;SDS011;44794;42.652;23.318;2023-02-01T14:00:26;6.20;;;2.45;;
59008;SDS011;44794;42.652;23.318;2023-02-01T14:16:10;3.90;;;2.55;;
59008;SDS011;44794;42.652;23.318;2023-02-01T14:23:44;5.05;;;2.20;;
59008;SDS011;44794;42.652;23.318;2023-02-01T14:26:17;3.63;;;2.40;;
59008;SDS011;44794;42.652;23.318;2023-02-01T14:28:46;3.65;;;2.35;;
59008;SDS011;44794;42.652;23.318;2023-02-01T14:37:09;6.38;;;2.78;;
59008;SDS011;44794;42.652;23.318;2023-02-01T14:39:59;6.20;;;2.70;;
59008;SDS011;44794;42.652;23.318;2023-02-01T14:44:54;6.53;;;2.20;;
59008;SDS011;44794;42.652;23.318;2023-02-01T14:47:39;5.35;;;2.47;;
59008;SDS011;44794;42.652;23.318;2023-02-01T14:50:22;12.60;;;2.78;;
59008;SDS011;44794;42.652;23.318;2023-02-01T14:52:58;5.05;;;2.60;;
59008;SDS011;44794;42.652;23.318;2023-02-01T14:58:16;6.50;;;2.53;;
59008;SDS011;44794;42.652;23.318;2023-02-01T15:01:02;7.38;;;4.20;;
59008;SDS011;44794;42.652;23.318;2023-02-01T15:03:34;8.02;;;3.60;;
59008;SDS011;44794;42.652;23.318;2023-02-01T15:06:03;8.48;;;3.92;;
59008;SDS011;44794;42.652;23.318;2023-02-01T15:08:37;9.55;;;3.78;;
59008;SDS011;44794;42.652;23.318;2023-02-01T15:11:10;6.90;;;3.20;;
59008;SDS011;44794;42.652;23.318;2023-02-01T15:13:40;9.40;;;4.00;;
59008;SDS011;44794;42.652;23.318;2023-02-01T15:16:15;9.82;;;4.18;;
59008;SDS011;44794;42.652;23.318;2023-02-01T15:18:41;7.68;;;4.07;;
59008;SDS011;44794;42.652;23.318;2023-02-01T15:23:46;6.32;;;3.20;;
59008;SDS011;44794;42.652;23.318;2023-02-01T15:26:27;4.60;;;2.40;;
59008;SDS011;44794;42.652;23.318;2023-02-01T15:28:53;5.55;;;2.65;;
59008;SDS011;44794;42.652;23.318;2023-02-01T15:31:32;6.93;;;2.95;;
59008;SDS011;44794;42.652;23.318;2023-02-01T15:33:58;5.03;;;2.30;;
59008;SDS011;44794;42.652;23.318;2023-02-01T15:36:23;8.38;;;2.95;;
59008;SDS011;44794;42.652;23.318;2023-02-01T15:41:56;4.63;;;2.92;;
59008;SDS011;44794;42.652;23.318;2023-02-01T15:44:44;4.45;;;2.17;;
59008;SDS011;44794;42.652;23.318;2023-02-01T15:47:17;5.65;;;2.63;;
59008;SDS011;44794;42.652;23.318;2023-02-01T15:49:55;7.45;;;3.45;;
59008;SDS011;44794;42.652;23.318;2023-02-01T15:52:27;8.65;;;2.22;;
59008;SDS011;44794;42.652;23.318;2023-02-01T15:54:55;2.67;;;1.83;;
59008;SDS011;44794;42.652;23.318;2023-02-01T15:57:29;6.13;;;2.30;;
59008;SDS011;44794;42.652;23.318;2023-02-01T16:00:00;5.85;;;2.85;;
59008;SDS011;44794;42.652;23.318;2023-02-01T16:02:36;5.45;;;2.85;;
59008;SDS011;44794;42.652;23.318;2023-02-01T16:05:34;6.88;;;3.63;;
59008;SDS011;44794;42.652;23.318;2023-02-01T16:08:22;5.20;;;3.25;;
59008;SDS011;44794;42.652;23.318;2023-02-01T16:10:50;7.55;;;3.97;;
59008;SDS011;44794;42.652;23.318;2023-02-01T16:13:18;9.30;;;3.70;;
59008;SDS011;44794;42.652;23.318;2023-02-01T16:15:48;6.00;;;3.25;;
59008;SDS011;44794;42.652;23.318;2023-02-01T16:18:14;5.65;;;3.50;;
59008;SDS011;44794;42.652;23.318;2023-02-01T16:20:40;9.95;;;3.95;;
59008;SDS011;44794;42.652;23.318;2023-02-01T16:23:07;7.57;;;2.97;;
59008;SDS011;44794;42.652;23.318;2023-02-01T16:25:34;4.53;;;2.92;;
59008;SDS011;44794;42.652;23.318;2023-02-01T16:28:00;6.43;;;3.58;;
59008;SDS011;44794;42.652;23.318;2023-02-01T16:30:26;7.05;;;4.03;;
59008;SDS011;44794;42.652;23.318;2023-02-01T16:32:52;9.80;;;4.43;;
59008;SDS011;44794;42.652;23.318;2023-02-01T16:35:26;8.48;;;3.63;;
59008;SDS011;44794;42.652;23.318;2023-02-01T16:37:56;6.72;;;3.50;;
59008;SDS011;44794;42.652;23.318;2023-02-01T16:40:23;4.38;;;2.67;;
59008;SDS011;44794;42.652;23.318;2023-02-01T16:42:49;7.70;;;3.60;;
59008;SDS011;44794;42.652;23.318;2023-02-01T16:45:16;7.88;;;3.83;;
59008;SDS011;44794;42.652;23.318;2023-02-01T16:47:52;5.35;;;3.30;;
59008;SDS011;44794;42.652;23.318;2023-02-01T16:50:23;5.03;;;2.92;;
59008;SDS011;44794;42.652;23.318;2023-02-01T16:55:17;6.38;;;3.40;;
59008;SDS011;44794;42.652;23.318;2023-02-01T16:57:46;8.15;;;3.50;;
59008;SDS011;44794;42.652;23.318;2023-02-01T17:00:11;7.35;;;4.15;;
59008;SDS011;44794;42.652;23.318;2023-02-01T17:02:38;14.65;;;4.47;;
59008;SDS011;44794;42.652;23.318;2023-02-01T17:05:06;6.90;;;3.50;;
59008;SDS011;44794;42.652;23.318;2023-02-01T17:07:33;8.27;;;4.28;;
59008;SDS011;44794;42.652;23.318;2023-02-01T17:10:00;7.97;;;4.45;;
59008;SDS011;44794;42.652;23.318;2023-02-01T17:12:30;10.80;;;5.23;;
59008;SDS011;44794;42.652;23.318;2023-02-01T17:14:58;12.45;;;5.70;;
59008;SDS011;44794;42.652;23.318;2023-02-01T17:17:36;13.63;;;5.30;;
59008;SDS011;44794;42.652;23.318;2023-02-01T17:20:04;9.38;;;4.93;;
59008;SDS011;44794;42.652;23.318;2023-02-01T17:22:31;10.40;;;4.78;;
59008;SDS011;44794;42.652;23.318;2023-02-01T17:24:57;7.50;;;4.15;;